AirNav   Pilot Hours Calculator
 
 711 users online  

WI03 Horner Farms Airport
Union Grove, Wisconsin, USA

GOING TO UNION GROVE?


FAA INFORMATION EFFECTIVE 26 JANUARY 2023

Location

FAA Identifier: WI03
Lat/Long: 42-47-53.0600N 088-08-00.3150W
42-47.884333N 088-08.005250W
42.7980722,-88.1334208
(estimated)
Elevation: 770 ft. / 235 m (estimated)
Variation: 01W (1985)
From city: 4 miles NE of UNION GROVE, WI
Time zone: UTC -6 (UTC -5 during Daylight Saving Time)
Zip code: 53185

Airport Operations

Airport use: Private use. Permission required prior to landing
Activation date: 06/1957
Control tower: no
ARTCC: CHICAGO CENTER
FSS: GREEN BAY FLIGHT SERVICE STATION
OR LOCAL CALL 632-3363.
Attendance: UNATNDD
Wind indicator: yes
Segmented circle: no

Airport Communications

WX AWOS-3 at BUU (10 nm SW): 125.275 (262-757-0907)
WX AWOS-3PT at 57C (11 nm W): 118.125 (262-642-1845)
WX ASOS at MKE (14 nm NE): 126.4 (414-489-2168)
WX ASOS at RAC (14 nm E): 121.425 (262-635-0959)
WX ASOS at ENW (15 nm SE): PHONE 262-652-7730
WX AWOS-3 at UES (15 nm N): 118.875 (262-521-5226)
WX AWOS-3 at MWC (19 nm N): PHONE 414-461-2954

Nearby radio navigation aids

VOR radial/distance  VOR name  Freq  Var
BAEr159/20.2BADGER VOR/DME116.4002E
OBKr349/35.5NORTHBROOK VOR/DME113.0002W
BJBr182/(37.4)WEST BEND VOR109.8001W

 
NDB name  Hdg/Dist  Freq  Var  ID
ROCK RIVER132/34.437101WRYV .-. -.-- ...-

Airport Services

Airframe service: NONE
Powerplant service: NONE
Bottled oxygen: NONE
Bulk oxygen: NONE

Runway Information

Runway 9/27

Dimensions: 2000 x 100 ft. / 610 x 30 m
Surface: turf, in good condition
RUNWAY 9  RUNWAY 27
Traffic pattern: leftleft
Runway end identifier lights: nono
Obstructions: 20 ft. trees, 40 ft. left of centerline
+15' TREES 50' LEFT OF CNTRLN.
15 ft. bldg, 50 ft. from runway, 40 ft. right of centerline, 3:1 slope to clear
+20' BLDG 25' RIGHT OF CNTRLN.

Runway 18/36

Dimensions: 1300 x 80 ft. / 396 x 24 m
Surface: turf, in good condition
RUNWAY 18  RUNWAY 36
Traffic pattern: leftleft
Runway end identifier lights: nono
Obstructions: 20 ft. pline, 50 ft. from runway, 3:1 slope to clear
HAS A PLINE PERPENDICULAR TO RWY.
road, 15 ft. from runway, 1:1 slope to clear
HAS A ROAD PERPENDICULAR TO RWY.

Airport Ownership and Management from official FAA records

Ownership: Privately-owned
Owner: HORNER SOD FARMS, LTD.
5732 E. WIND LAKE ROAD
UNION GROVE, WI 53182
Phone 414-895-7552
Manager: MIKE SANFELIPPO
5732 E. WIND LAKE ROAD
UNION GROVE, WI 53182
Phone 414-835-4661

Airport Operational Statistics

Aircraft operations: avg 83/month *
100% transient general aviation
* for 12-month period ending 07 October 1982

Additional Remarks

FOR CD CTC CHICAGO ARTCC AT 630-906-8921.

Instrument Procedures

There are no published instrument procedures at WI03.

Some nearby airports with instrument procedures:

KBUU - Burlington Municipal Airport (10 nm SW)
57C - East Troy Municipal Airport (11 nm W)
KMKE - General Mitchell International Airport (14 nm NE)
KRAC - Batten International Airport (14 nm E)
KENW - Kenosha Regional Airport (15 nm SE)
KUES - Waukesha County Airport (15 nm N)
C02 - Grand Geneva Resort Airport (16 nm SW)
KMWC - Lawrence J Timmerman Airport (19 nm N)
 
Loc | Ops | Rwys | IFR | FBO | Links
Com | Nav | Svcs | Stats | Notes
Area around WI03 (Horner Farms Airport)
 
Road maps at: MapQuest Bing Google
 
Aerial photo
No photo
 
Sectional chart

 
Airport distance calculator
Flying to Horner Farms Airport? Find the distance to fly.

From to WI03

Sunrise and sunset
Times for 06-Feb-2023
 Local
(UTC-6)
 Zulu
(UTC)
Morning civil twilight06:3312:33
Sunrise07:0313:03
Sunset17:1123:11
Evening civil twilight17:4023:40

Current date and time
Zulu (UTC)  07-Feb-2023 05:22:37
Local (UTC-6)  06-Feb-2023 23:22:37
 
METAR
KBUU 
10nm SW 
070455Z AUTO 18014G23KT 10SM OVC037 06/00 A2975 RMK AO2 T00581005 PWINO
K57C 
11nm W 
070455Z AUTO 17015G23KT 10SM OVC036 06/M01 A2973 RMK AO2 T00571010
KUES 
13nm N 
070455Z AUTO 15013G18KT 10SM OVC039 02/M02 A2974 RMK AO2
KMKE 
14nm NE 
070452Z 17014G22KT 10SM FEW045 BKN055 OVC085 05/M02 A2975 RMK AO2 SLP081 T00501017
KRAC 
14nm E 
070453Z AUTO 17015G23KT 10SM BKN048 BKN055 OVC070 03/M01 A2980 RMK AO2 PK WND 15027/0417 SLP095 T00331011
KENW 
15nm SE 
070453Z AUTO 17016G23KT 10SM BKN048 BKN065 OVC080 06/M01 A2977 RMK AO2 SLP087 T00611011
KMWC 
20nm N 
070455Z AUTO 16013G16KT 10SM BKN042 OVC050 03/M02 A2976 RMK AO2
TAF
KUES 
13nm N 
070317Z 0703/0724 13014G24KT P6SM SCT035 BKN200 WS020/20055KT FM070600 19018G26KT P6SM -RA SCT023 OVC030 WS020/20055KT FM070900 23013G22KT P6SM SCT009 BKN013 OVC023 FM071900 28013G22KT P6SM BKN023 OVC030
KMKE 
14nm NE 
070317Z 0703/0806 15017G27KT P6SM SCT060 BKN250 WS020/20060KT FM070700 18015G25KT P6SM VCSH BKN022 OVC035 WS020/21055KT FM071000 25012G22KT P6SM SCT011 OVC022 FM071900 28013G22KT P6SM BKN022 OVC035 FM080300 27007KT P6SM FEW250
KENW 
15nm SE 
070317Z 0703/0724 14014G23KT P6SM SCT060 BKN200 WS020/20060KT FM070700 18018G27KT P6SM VCSH SCT014 OVC030 WS020/22050KT FM071000 24013G24KT P6SM SCT011 OVC021 FM072200 27014G20KT P6SM SCT021 OVC035
NOTAMs
Click for the latest NOTAMs
NOTAMs are issued by the DoD/FAA and will open in a separate window not controlled by AirNav.

 

 
 

Would you like to see your business listed on this page?

 If your business provides an interesting product or service to pilots, flight crews, aircraft, or users of the Horner Farms Airport, you should consider listing it here.  To start the listing process, click on the button below
 
Add a business
 

Other Pages about Horner Farms Airport

Update a link
 
Copyright © AirNav, LLC. All rights reserved. Privacy Policy  Contact